sensor_id;sensor_type;location;lat;lon;timestamp;pressure;altitude;pressure_sealevel;temperature;humidity
58753;BME280;44525;46.052;13.610;2023-04-06T00:00:00;101018.47;;;3.53;nan
58753;BME280;44525;46.052;13.610;2023-04-06T00:02:25;101016.72;;;3.77;nan
58753;BME280;44525;46.052;13.610;2023-04-06T00:04:50;101020.44;;;3.76;nan
58753;BME280;44525;46.052;13.610;2023-04-06T00:07:16;101020.47;;;3.58;nan
58753;BME280;44525;46.052;13.610;2023-04-06T00:09:41;101018.41;;;3.90;nan
58753;BME280;44525;46.052;13.610;2023-04-06T00:12:06;101009.91;;;3.75;nan
58753;BME280;44525;46.052;13.610;2023-04-06T00:14:31;101007.63;;;3.60;nan
58753;BME280;44525;46.052;13.610;2023-04-06T00:16:57;101013.16;;;3.46;nan
58753;BME280;44525;46.052;13.610;2023-04-06T00:19:22;101002.31;;;2.97;nan
58753;BME280;44525;46.052;13.610;2023-04-06T00:21:47;101010.19;;;3.18;nan
58753;BME280;44525;46.052;13.610;2023-04-06T00:24:13;101002.44;;;3.28;nan
58753;BME280;44525;46.052;13.610;2023-04-06T00:26:38;101009.28;;;3.42;nan
58753;BME280;44525;46.052;13.610;2023-04-06T00:29:03;101007.34;;;3.49;nan
58753;BME280;44525;46.052;13.610;2023-04-06T00:31:29;101010.34;;;3.41;nan
58753;BME280;44525;46.052;13.610;2023-04-06T00:33:54;101010.13;;;3.43;nan
58753;BME280;44525;46.052;13.610;2023-04-06T00:36:19;100998.81;;;3.15;nan
58753;BME280;44525;46.052;13.610;2023-04-06T00:38:44;101003.53;;;3.39;nan
58753;BME280;44525;46.052;13.610;2023-04-06T00:41:10;101000.63;;;3.40;nan
58753;BME280;44525;46.052;13.610;2023-04-06T00:43:35;100997.72;;;3.42;nan
58753;BME280;44525;46.052;13.610;2023-04-06T00:46:00;101017.03;;;3.13;nan
58753;BME280;44525;46.052;13.610;2023-04-06T00:48:26;101014.16;;;2.90;nan
58753;BME280;44525;46.052;13.610;2023-04-06T00:50:51;101011.16;;;2.79;nan
58753;BME280;44525;46.052;13.610;2023-04-06T00:53:16;101015.50;;;2.99;nan
58753;BME280;44525;46.052;13.610;2023-04-06T00:55:42;100999.88;;;3.33;nan
58753;BME280;44525;46.052;13.610;2023-04-06T00:58:07;101004.00;;;3.36;nan
58753;BME280;44525;46.052;13.610;2023-04-06T01:00:33;100998.97;;;3.39;nan
58753;BME280;44525;46.052;13.610;2023-04-06T01:02:58;101005.25;;;3.33;nan
58753;BME280;44525;46.052;13.610;2023-04-06T01:05:23;101008.38;;;3.30;nan
58753;BME280;44525;46.052;13.610;2023-04-06T01:07:49;101004.63;;;3.12;nan
58753;BME280;44525;46.052;13.610;2023-04-06T01:10:24;101008.53;;;3.16;nan
58753;BME280;44525;46.052;13.610;2023-04-06T01:12:49;101003.75;;;3.19;nan
58753;BME280;44525;46.052;13.610;2023-04-06T01:15:15;101002.41;;;3.09;nan
58753;BME280;44525;46.052;13.610;2023-04-06T01:17:40;101010.72;;;2.83;nan
58753;BME280;44525;46.052;13.610;2023-04-06T01:20:06;101014.16;;;2.65;nan
58753;BME280;44525;46.052;13.610;2023-04-06T01:22:32;101012.81;;;2.80;nan
58753;BME280;44525;46.052;13.610;2023-04-06T01:24:57;101015.28;;;2.82;nan
58753;BME280;44525;46.052;13.610;2023-04-06T01:27:22;101009.00;;;2.88;nan
58753;BME280;44525;46.052;13.610;2023-04-06T01:29:48;101015.75;;;2.72;nan
58753;BME280;44525;46.052;13.610;2023-04-06T01:32:13;101013.97;;;2.85;nan
58753;BME280;44525;46.052;13.610;2023-04-06T01:34:38;101006.59;;;2.55;nan
58753;BME280;44525;46.052;13.610;2023-04-06T01:37:04;101013.88;;;2.73;nan
58753;BME280;44525;46.052;13.610;2023-04-06T01:39:29;101007.53;;;2.42;nan
58753;BME280;44525;46.052;13.610;2023-04-06T01:41:55;101007.72;;;2.72;nan
58753;BME280;44525;46.052;13.610;2023-04-06T01:44:20;101010.97;;;2.49;nan
58753;BME280;44525;46.052;13.610;2023-04-06T01:46:46;101010.53;;;2.52;nan
58753;BME280;44525;46.052;13.610;2023-04-06T01:49:11;101014.16;;;2.65;nan
58753;BME280;44525;46.052;13.610;2023-04-06T01:51:36;101011.53;;;2.58;nan
58753;BME280;44525;46.052;13.610;2023-04-06T01:54:02;101007.59;;;2.60;nan
58753;BME280;44525;46.052;13.610;2023-04-06T01:56:27;101006.78;;;2.60;nan
58753;BME280;44525;46.052;13.610;2023-04-06T01:58:52;101007.53;;;2.67;nan
58753;BME280;44525;46.052;13.610;2023-04-06T02:01:18;101006.47;;;2.50;nan
58753;BME280;44525;46.052;13.610;2023-04-06T02:03:43;101007.81;;;2.59;nan
58753;BME280;44525;46.052;13.610;2023-04-06T02:06:08;101003.81;;;2.68;nan
58753;BME280;44525;46.052;13.610;2023-04-06T02:08:33;101001.53;;;2.15;nan
58753;BME280;44525;46.052;13.610;2023-04-06T02:10:59;101006.63;;;2.23;nan
58753;BME280;44525;46.052;13.610;2023-04-06T02:13:24;101002.78;;;2.44;nan
58753;BME280;44525;46.052;13.610;2023-04-06T02:15:50;101004.00;;;2.48;nan
58753;BME280;44525;46.052;13.610;2023-04-06T02:18:16;101001.69;;;2.20;nan
58753;BME280;44525;46.052;13.610;2023-04-06T02:20:43;101001.19;;;2.36;nan
58753;BME280;44525;46.052;13.610;2023-04-06T02:23:08;100998.66;;;2.09;nan
58753;BME280;44525;46.052;13.610;2023-04-06T02:25:33;101003.28;;;2.02;nan
58753;BME280;44525;46.052;13.610;2023-04-06T02:27:58;100995.38;;;2.14;nan
58753;BME280;44525;46.052;13.610;2023-04-06T02:30:24;100994.00;;;1.98;nan
58753;BME280;44525;46.052;13.610;2023-04-06T02:32:49;100998.22;;;2.13;nan
58753;BME280;44525;46.052;13.610;2023-04-06T02:35:15;100998.03;;;2.14;nan
58753;BME280;44525;46.052;13.610;2023-04-06T02:37:40;100996.50;;;1.93;nan
58753;BME280;44525;46.052;13.610;2023-04-06T02:40:05;100992.59;;;1.96;nan
58753;BME280;44525;46.052;13.610;2023-04-06T02:42:31;100983.38;;;2.17;nan
58753;BME280;44525;46.052;13.610;2023-04-06T02:44:57;100988.03;;;1.96;nan
58753;BME280;44525;46.052;13.610;2023-04-06T02:47:22;100987.66;;;1.92;nan
58753;BME280;44525;46.052;13.610;2023-04-06T02:49:47;100986.56;;;2.00;nan
58753;BME280;44525;46.052;13.610;2023-04-06T02:52:13;100986.34;;;2.08;nan
58753;BME280;44525;46.052;13.610;2023-04-06T02:54:38;100990.53;;;2.23;nan
58753;BME280;44525;46.052;13.610;2023-04-06T02:57:03;100987.50;;;1.81;nan
58753;BME280;44525;46.052;13.610;2023-04-06T02:59:29;100992.00;;;1.87;nan
58753;BME280;44525;46.052;13.610;2023-04-06T03:01:54;100993.59;;;2.01;nan
58753;BME280;44525;46.052;13.610;2023-04-06T03:04:20;100992.81;;;1.87;nan
58753;BME280;44525;46.052;13.610;2023-04-06T03:06:47;100994.41;;;2.02;nan
58753;BME280;44525;46.052;13.610;2023-04-06T03:09:12;100990.91;;;2.01;nan
58753;BME280;44525;46.052;13.610;2023-04-06T03:11:39;100989.84;;;1.64;nan
58753;BME280;44525;46.052;13.610;2023-04-06T03:14:04;100990.34;;;1.92;nan
58753;BME280;44525;46.052;13.610;2023-04-06T03:16:29;100987.44;;;1.94;nan
58753;BME280;44525;46.052;13.610;2023-04-06T03:18:55;100993.16;;;1.59;nan
58753;BME280;44525;46.052;13.610;2023-04-06T03:21:20;100992.53;;;1.64;nan
58753;BME280;44525;46.052;13.610;2023-04-06T03:23:45;100995.72;;;1.86;nan
58753;BME280;44525;46.052;13.610;2023-04-06T03:26:11;100992.97;;;1.99;nan
58753;BME280;44525;46.052;13.610;2023-04-06T03:28:36;100997.72;;;1.97;nan
58753;BME280;44525;46.052;13.610;2023-04-06T03:31:01;100993.22;;;1.91;nan
58753;BME280;44525;46.052;13.610;2023-04-06T03:33:26;100996.63;;;1.66;nan
58753;BME280;44525;46.052;13.610;2023-04-06T03:35:52;100996.19;;;1.76;nan
58753;BME280;44525;46.052;13.610;2023-04-06T03:38:17;101008.94;;;1.81;nan
58753;BME280;44525;46.052;13.610;2023-04-06T03:40:43;101005.16;;;1.95;nan
58753;BME280;44525;46.052;13.610;2023-04-06T03:43:08;101007.22;;;1.93;nan
58753;BME280;44525;46.052;13.610;2023-04-06T03:45:34;101006.06;;;1.75;nan
58753;BME280;44525;46.052;13.610;2023-04-06T03:47:59;101008.25;;;1.40;nan
58753;BME280;44525;46.052;13.610;2023-04-06T03:50:24;101003.97;;;1.32;nan
58753;BME280;44525;46.052;13.610;2023-04-06T03:52:50;101007.84;;;1.43;nan
58753;BME280;44525;46.052;13.610;2023-04-06T03:55:15;101007.25;;;1.41;nan
58753;BME280;44525;46.052;13.610;2023-04-06T03:57:40;101007.19;;;1.61;nan
58753;BME280;44525;46.052;13.610;2023-04-06T04:00:06;101003.59;;;1.74;nan
58753;BME280;44525;46.052;13.610;2023-04-06T04:02:32;101012.25;;;1.76;nan
58753;BME280;44525;46.052;13.610;2023-04-06T04:04:57;101011.75;;;1.47;nan
58753;BME280;44525;46.052;13.610;2023-04-06T04:07:22;101014.59;;;1.59;nan
58753;BME280;44525;46.052;13.610;2023-04-06T04:09:47;101013.97;;;1.57;nan
58753;BME280;44525;46.052;13.610;2023-04-06T04:12:13;101017.09;;;1.47;nan
58753;BME280;44525;46.052;13.610;2023-04-06T04:14:39;101018.09;;;1.60;nan
58753;BME280;44525;46.052;13.610;2023-04-06T04:17:05;101016.50;;;1.38;nan
58753;BME280;44525;46.052;13.610;2023-04-06T04:19:30;101016.31;;;1.33;nan
58753;BME280;44525;46.052;13.610;2023-04-06T04:21:55;101013.69;;;1.13;nan
58753;BME280;44525;46.052;13.610;2023-04-06T04:24:20;101025.22;;;1.14;nan
58753;BME280;44525;46.052;13.610;2023-04-06T04:26:46;101023.53;;;1.19;nan
58753;BME280;44525;46.052;13.610;2023-04-06T04:29:11;101026.75;;;1.55;nan
58753;BME280;44525;46.052;13.610;2023-04-06T04:31:36;101022.44;;;1.54;nan
58753;BME280;44525;46.052;13.610;2023-04-06T04:34:01;101030.50;;;1.40;nan
58753;BME280;44525;46.052;13.610;2023-04-06T04:36:27;101025.50;;;1.57;nan
58753;BME280;44525;46.052;13.610;2023-04-06T04:38:52;101022.59;;;1.66;nan
58753;BME280;44525;46.052;13.610;2023-04-06T04:41:17;101025.28;;;1.59;nan
58753;BME280;44525;46.052;13.610;2023-04-06T04:43:43;101030.47;;;1.54;nan
58753;BME280;44525;46.052;13.610;2023-04-06T04:46:08;101038.66;;;1.66;nan
58753;BME280;44525;46.052;13.610;2023-04-06T04:48:33;101037.63;;;1.67;nan
58753;BME280;44525;46.052;13.610;2023-04-06T04:50:59;101036.84;;;1.60;nan
58753;BME280;44525;46.052;13.610;2023-04-06T04:53:24;101033.56;;;1.51;nan
58753;BME280;44525;46.052;13.610;2023-04-06T04:55:51;101039.16;;;1.43;nan
58753;BME280;44525;46.052;13.610;2023-04-06T04:58:16;101040.31;;;1.60;nan
58753;BME280;44525;46.052;13.610;2023-04-06T05:00:42;101045.94;;;1.45;nan
58753;BME280;44525;46.052;13.610;2023-04-06T05:03:07;101049.22;;;1.54;nan
58753;BME280;44525;46.052;13.610;2023-04-06T05:05:33;101050.63;;;1.63;nan
58753;BME280;44525;46.052;13.610;2023-04-06T05:07:58;101051.94;;;1.40;nan
58753;BME280;44525;46.052;13.610;2023-04-06T05:10:23;101046.16;;;1.44;nan
58753;BME280;44525;46.052;13.610;2023-04-06T05:12:49;101051.69;;;1.49;nan
58753;BME280;44525;46.052;13.610;2023-04-06T05:15:14;101053.97;;;1.38;nan
58753;BME280;44525;46.052;13.610;2023-04-06T05:17:40;101054.59;;;1.40;nan
58753;BME280;44525;46.052;13.610;2023-04-06T05:20:05;101058.84;;;1.68;nan
58753;BME280;44525;46.052;13.610;2023-04-06T05:22:31;101057.25;;;1.47;nan
58753;BME280;44525;46.052;13.610;2023-04-06T05:24:56;101050.81;;;1.68;nan
58753;BME280;44525;46.052;13.610;2023-04-06T05:27:21;101050.81;;;1.62;nan
58753;BME280;44525;46.052;13.610;2023-04-06T05:29:46;101062.94;;;1.78;nan
58753;BME280;44525;46.052;13.610;2023-04-06T05:32:12;101054.31;;;1.69;nan
58753;BME280;44525;46.052;13.610;2023-04-06T05:34:37;101054.63;;;1.86;nan
58753;BME280;44525;46.052;13.610;2023-04-06T05:37:02;101057.19;;;2.13;nan
58753;BME280;44525;46.052;13.610;2023-04-06T05:39:27;101058.50;;;2.35;nan
58753;BME280;44525;46.052;13.610;2023-04-06T05:41:53;101058.00;;;2.52;nan
58753;BME280;44525;46.052;13.610;2023-04-06T05:44:18;101064.25;;;2.71;nan
58753;BME280;44525;46.052;13.610;2023-04-06T05:46:43;101058.94;;;2.89;nan
58753;BME280;44525;46.052;13.610;2023-04-06T05:49:09;101061.13;;;2.74;nan
58753;BME280;44525;46.052;13.610;2023-04-06T05:51:34;101057.91;;;2.90;nan
58753;BME280;44525;46.052;13.610;2023-04-06T05:53:59;101056.66;;;3.11;nan
58753;BME280;44525;46.052;13.610;2023-04-06T05:56:25;101048.50;;;3.43;nan
58753;BME280;44525;46.052;13.610;2023-04-06T05:58:50;101056.72;;;3.48;nan
58753;BME280;44525;46.052;13.610;2023-04-06T06:01:15;101052.47;;;3.59;nan
58753;BME280;44525;46.052;13.610;2023-04-06T06:03:41;101046.88;;;3.61;nan
58753;BME280;44525;46.052;13.610;2023-04-06T06:06:06;101046.75;;;4.04;nan
58753;BME280;44525;46.052;13.610;2023-04-06T06:08:31;101053.34;;;4.20;nan
58753;BME280;44525;46.052;13.610;2023-04-06T06:10:57;101042.94;;;4.66;nan
58753;BME280;44525;46.052;13.610;2023-04-06T06:13:22;101052.91;;;4.78;nan
58753;BME280;44525;46.052;13.610;2023-04-06T06:15:48;101045.81;;;5.07;nan
58753;BME280;44525;46.052;13.610;2023-04-06T06:18:14;101040.03;;;5.15;nan
58753;BME280;44525;46.052;13.610;2023-04-06T06:20:39;101040.84;;;5.51;nan
58753;BME280;44525;46.052;13.610;2023-04-06T06:23:04;101036.75;;;5.49;nan
58753;BME280;44525;46.052;13.610;2023-04-06T06:25:30;101043.84;;;5.67;nan
58753;BME280;44525;46.052;13.610;2023-04-06T06:27:56;101036.53;;;5.91;nan
58753;BME280;44525;46.052;13.610;2023-04-06T06:30:21;101031.06;;;6.14;nan
58753;BME280;44525;46.052;13.610;2023-04-06T06:32:46;101028.84;;;6.11;nan
58753;BME280;44525;46.052;13.610;2023-04-06T06:35:11;101029.66;;;6.41;nan
58753;BME280;44525;46.052;13.610;2023-04-06T06:37:37;101035.59;;;6.60;nan
58753;BME280;44525;46.052;13.610;2023-04-06T06:40:02;101024.03;;;6.76;nan
58753;BME280;44525;46.052;13.610;2023-04-06T06:42:27;101023.09;;;7.05;nan
58753;BME280;44525;46.052;13.610;2023-04-06T06:44:53;101023.59;;;7.01;nan
58753;BME280;44525;46.052;13.610;2023-04-06T06:47:18;101017.53;;;7.33;nan
58753;BME280;44525;46.052;13.610;2023-04-06T06:49:44;101020.22;;;7.33;nan
58753;BME280;44525;46.052;13.610;2023-04-06T06:52:09;101016.34;;;7.46;nan
58753;BME280;44525;46.052;13.610;2023-04-06T06:54:34;101011.97;;;7.62;nan
58753;BME280;44525;46.052;13.610;2023-04-06T06:57:00;101018.28;;;7.95;nan
58753;BME280;44525;46.052;13.610;2023-04-06T06:59:25;101015.94;;;8.58;nan
58753;BME280;44525;46.052;13.610;2023-04-06T07:01:51;101012.28;;;9.18;nan
58753;BME280;44525;46.052;13.610;2023-04-06T07:04:16;101006.53;;;9.62;nan
58753;BME280;44525;46.052;13.610;2023-04-06T07:06:41;101005.56;;;10.09;nan
58753;BME280;44525;46.052;13.610;2023-04-06T07:09:06;101008.34;;;10.86;nan
58753;BME280;44525;46.052;13.610;2023-04-06T07:11:32;101002.56;;;11.89;nan
58753;BME280;44525;46.052;13.610;2023-04-06T07:13:57;101008.81;;;11.24;nan
58753;BME280;44525;46.052;13.610;2023-04-06T07:16:22;100999.63;;;10.95;nan
58753;BME280;44525;46.052;13.610;2023-04-06T07:18:47;100995.50;;;11.18;nan
58753;BME280;44525;46.052;13.610;2023-04-06T07:21:13;100999.00;;;11.29;nan
58753;BME280;44525;46.052;13.610;2023-04-06T07:23:38;100995.03;;;10.80;nan
58753;BME280;44525;46.052;13.610;2023-04-06T07:26:03;100991.34;;;11.41;nan
58753;BME280;44525;46.052;13.610;2023-04-06T07:28:29;100994.66;;;11.33;nan
58753;BME280;44525;46.052;13.610;2023-04-06T07:30:54;100993.88;;;11.17;nan
58753;BME280;44525;46.052;13.610;2023-04-06T07:33:19;100984.94;;;11.06;nan
58753;BME280;44525;46.052;13.610;2023-04-06T07:35:45;100995.16;;;11.40;nan
58753;BME280;44525;46.052;13.610;2023-04-06T07:38:10;100982.25;;;12.21;nan
58753;BME280;44525;46.052;13.610;2023-04-06T07:40:35;65501.63;;;-149.14;100.00
58753;BME280;44525;46.052;13.610;2023-04-06T07:43:01;65501.63;;;-149.14;100.00
58753;BME280;44525;46.052;13.610;2023-04-06T07:45:27;65501.63;;;-149.14;100.00
58753;BME280;44525;46.052;13.610;2023-04-06T07:47:52;65501.63;;;-149.14;100.00
58753;BME280;44525;46.052;13.610;2023-04-06T07:50:17;65501.63;;;-149.14;100.00
58753;BME280;44525;46.052;13.610;2023-04-06T07:52:42;65501.63;;;19.53;100.00
58753;BME280;44525;46.052;13.610;2023-04-06T07:55:08;100963.53;;;12.44;nan
58753;BME280;44525;46.052;13.610;2023-04-06T07:57:33;100965.00;;;12.66;nan
58753;BME280;44525;46.052;13.610;2023-04-06T07:59:58;100960.59;;;13.18;nan
58753;BME280;44525;46.052;13.610;2023-04-06T08:02:23;100960.38;;;13.63;nan
58753;BME280;44525;46.052;13.610;2023-04-06T08:04:49;65501.63;;;-149.14;100.00
58753;BME280;44525;46.052;13.610;2023-04-06T08:07:14;65501.63;;;-149.14;100.00
58753;BME280;44525;46.052;13.610;2023-04-06T08:09:40;65501.63;;;-149.14;100.00
58753;BME280;44525;46.052;13.610;2023-04-06T08:12:05;65501.63;;;-149.14;100.00
58753;BME280;44525;46.052;13.610;2023-04-06T08:14:30;100951.09;;;12.91;100.00
58753;BME280;44525;46.052;13.610;2023-04-06T08:16:56;65501.63;;;-149.14;100.00
58753;BME280;44525;46.052;13.610;2023-04-06T08:19:21;65501.63;;;-149.14;100.00
58753;BME280;44525;46.052;13.610;2023-04-06T08:21:46;100940.19;;;13.40;100.00
58753;BME280;44525;46.052;13.610;2023-04-06T08:24:12;100931.25;;;13.58;100.00
58753;BME280;44525;46.052;13.610;2023-04-06T08:26:37;100925.03;;;13.72;100.00
58753;BME280;44525;46.052;13.610;2023-04-06T08:29:03;100921.78;;;14.21;100.00
58753;BME280;44525;46.052;13.610;2023-04-06T08:31:29;100932.78;;;14.35;100.00
58753;BME280;44525;46.052;13.610;2023-04-06T08:33:54;100930.06;;;14.82;100.00
58753;BME280;44525;46.052;13.610;2023-04-06T08:36:19;65501.63;;;14.92;100.00
58753;BME280;44525;46.052;13.610;2023-04-06T08:38:47;65501.63;;;-149.14;100.00
58753;BME280;44525;46.052;13.610;2023-04-06T08:41:13;65501.63;;;-149.14;100.00
58753;BME280;44525;46.052;13.610;2023-04-06T08:43:48;65501.63;;;16.73;100.00
58753;BME280;44525;46.052;13.610;2023-04-06T08:46:14;65501.63;;;-149.14;100.00
58753;BME280;44525;46.052;13.610;2023-04-06T08:48:40;65501.63;;;-149.14;100.00
58753;BME280;44525;46.052;13.610;2023-04-06T08:51:05;100909.41;;;14.90;85.79
58753;BME280;44525;46.052;13.610;2023-04-06T08:53:30;65501.63;;;-149.14;100.00
58753;BME280;44525;46.052;13.610;2023-04-06T08:55:56;65501.63;;;-149.14;100.00
58753;BME280;44525;46.052;13.610;2023-04-06T08:58:22;65501.63;;;-149.14;100.00
58753;BME280;44525;46.052;13.610;2023-04-06T09:00:48;65501.63;;;-149.14;100.00
58753;BME280;44525;46.052;13.610;2023-04-06T09:03:14;65501.63;;;15.13;100.00
58753;BME280;44525;46.052;13.610;2023-04-06T09:05:40;65501.63;;;-149.14;100.00
58753;BME280;44525;46.052;13.610;2023-04-06T09:08:06;65501.63;;;-149.14;100.00
58753;BME280;44525;46.052;13.610;2023-04-06T09:10:32;65501.63;;;-149.14;100.00
58753;BME280;44525;46.052;13.610;2023-04-06T09:13:04;65501.63;;;-149.14;100.00
58753;BME280;44525;46.052;13.610;2023-04-06T09:15:30;65501.63;;;-149.14;100.00
58753;BME280;44525;46.052;13.610;2023-04-06T09:17:55;65501.63;;;-149.14;100.00
58753;BME280;44525;46.052;13.610;2023-04-06T09:20:24;65501.63;;;-149.14;100.00
58753;BME280;44525;46.052;13.610;2023-04-06T09:22:55;65501.63;;;-149.14;100.00
58753;BME280;44525;46.052;13.610;2023-04-06T09:27:46;65501.63;;;-149.14;100.00
58753;BME280;44525;46.052;13.610;2023-04-06T09:30:12;65501.63;;;-149.14;100.00
58753;BME280;44525;46.052;13.610;2023-04-06T09:32:45;65501.63;;;-149.14;100.00
58753;BME280;44525;46.052;13.610;2023-04-06T09:35:12;65501.63;;;-149.14;100.00
58753;BME280;44525;46.052;13.610;2023-04-06T09:37:37;65501.63;;;-149.14;100.00
58753;BME280;44525;46.052;13.610;2023-04-06T09:40:03;65501.63;;;-149.14;100.00
58753;BME280;44525;46.052;13.610;2023-04-06T09:42:28;65501.63;;;-149.14;100.00
58753;BME280;44525;46.052;13.610;2023-04-06T09:44:54;65501.63;;;-149.14;100.00
58753;BME280;44525;46.052;13.610;2023-04-06T09:47:19;65501.63;;;-149.14;100.00
58753;BME280;44525;46.052;13.610;2023-04-06T09:49:45;65501.63;;;-149.14;100.00
58753;BME280;44525;46.052;13.610;2023-04-06T09:52:12;65501.63;;;-149.14;100.00
58753;BME280;44525;46.052;13.610;2023-04-06T09:54:38;65501.63;;;-149.14;100.00
58753;BME280;44525;46.052;13.610;2023-04-06T10:02:03;65501.63;;;-149.14;100.00
58753;BME280;44525;46.052;13.610;2023-04-06T10:04:41;65501.63;;;-149.14;100.00
58753;BME280;44525;46.052;13.610;2023-04-06T10:07:08;65501.63;;;-149.14;100.00
58753;BME280;44525;46.052;13.610;2023-04-06T10:09:36;65501.63;;;-149.14;100.00
58753;BME280;44525;46.052;13.610;2023-04-06T10:12:05;65501.63;;;-149.14;100.00
58753;BME280;44525;46.052;13.610;2023-04-06T10:14:32;65501.63;;;-149.14;100.00
58753;BME280;44525;46.052;13.610;2023-04-06T10:16:57;65501.63;;;-149.14;100.00
58753;BME280;44525;46.052;13.610;2023-04-06T10:19:24;65501.63;;;-149.14;100.00
58753;BME280;44525;46.052;13.610;2023-04-06T10:21:52;65501.63;;;-149.14;100.00
58753;BME280;44525;46.052;13.610;2023-04-06T10:24:18;65501.63;;;-149.14;100.00
58753;BME280;44525;46.052;13.610;2023-04-06T10:26:43;65501.63;;;-149.14;100.00
58753;BME280;44525;46.052;13.610;2023-04-06T10:29:21;65501.63;;;-149.14;100.00
58753;BME280;44525;46.052;13.610;2023-04-06T10:31:48;65501.63;;;19.39;100.00
58753;BME280;44525;46.052;13.610;2023-04-06T10:34:13;65501.63;;;-149.14;100.00
58753;BME280;44525;46.052;13.610;2023-04-06T10:36:39;65501.63;;;-149.14;100.00
58753;BME280;44525;46.052;13.610;2023-04-06T10:39:05;65501.63;;;-149.14;100.00
58753;BME280;44525;46.052;13.610;2023-04-06T10:41:35;65501.63;;;-149.14;100.00
58753;BME280;44525;46.052;13.610;2023-04-06T10:44:00;65501.63;;;-149.14;100.00
58753;BME280;44525;46.052;13.610;2023-04-06T10:46:29;65501.63;;;-149.14;100.00
58753;BME280;44525;46.052;13.610;2023-04-06T10:48:55;65501.63;;;-149.14;100.00
58753;BME280;44525;46.052;13.610;2023-04-06T10:51:24;65501.63;;;-149.14;100.00
58753;BME280;44525;46.052;13.610;2023-04-06T10:53:49;65501.63;;;19.53;100.00
58753;BME280;44525;46.052;13.610;2023-04-06T10:56:16;65501.63;;;15.37;100.00
58753;BME280;44525;46.052;13.610;2023-04-06T10:58:45;65501.63;;;-149.14;100.00
58753;BME280;44525;46.052;13.610;2023-04-06T11:01:14;65501.63;;;-149.14;100.00
58753;BME280;44525;46.052;13.610;2023-04-06T11:03:43;65501.63;;;-149.14;100.00
58753;BME280;44525;46.052;13.610;2023-04-06T11:06:09;65501.63;;;-149.14;100.00
58753;BME280;44525;46.052;13.610;2023-04-06T11:08:34;65501.63;;;-149.14;100.00
58753;BME280;44525;46.052;13.610;2023-04-06T11:11:06;65501.63;;;-149.14;100.00
58753;BME280;44525;46.052;13.610;2023-04-06T11:16:07;65501.63;;;-149.14;100.00
58753;BME280;44525;46.052;13.610;2023-04-06T11:18:36;65501.63;;;-149.14;100.00
58753;BME280;44525;46.052;13.610;2023-04-06T11:21:02;65501.63;;;-149.14;100.00
58753;BME280;44525;46.052;13.610;2023-04-06T11:23:27;65501.63;;;-149.14;100.00
58753;BME280;44525;46.052;13.610;2023-04-06T11:25:53;65501.63;;;-149.14;100.00
58753;BME280;44525;46.052;13.610;2023-04-06T11:28:19;65501.63;;;19.45;100.00
58753;BME280;44525;46.052;13.610;2023-04-06T11:30:45;65501.63;;;-149.14;100.00
58753;BME280;44525;46.052;13.610;2023-04-06T11:33:10;65501.63;;;16.89;100.00
58753;BME280;44525;46.052;13.610;2023-04-06T11:35:35;65501.63;;;17.04;100.00
58753;BME280;44525;46.052;13.610;2023-04-06T11:38:05;65501.63;;;-149.14;100.00
58753;BME280;44525;46.052;13.610;2023-04-06T11:40:30;65501.63;;;-149.14;100.00
58753;BME280;44525;46.052;13.610;2023-04-06T11:42:58;65501.63;;;-149.14;100.00
58753;BME280;44525;46.052;13.610;2023-04-06T11:45:23;65501.63;;;-149.14;100.00
58753;BME280;44525;46.052;13.610;2023-04-06T11:47:55;65501.63;;;-149.14;100.00
58753;BME280;44525;46.052;13.610;2023-04-06T11:50:22;65501.63;;;-149.14;100.00
58753;BME280;44525;46.052;13.610;2023-04-06T11:52:47;65501.63;;;-149.14;100.00
58753;BME280;44525;46.052;13.610;2023-04-06T11:55:23;65501.63;;;-149.14;100.00
58753;BME280;44525;46.052;13.610;2023-04-06T11:57:48;65501.63;;;16.26;100.00
58753;BME280;44525;46.052;13.610;2023-04-06T12:00:15;65501.63;;;-149.14;100.00
58753;BME280;44525;46.052;13.610;2023-04-06T12:02:45;65501.63;;;-149.14;100.00
58753;BME280;44525;46.052;13.610;2023-04-06T12:05:10;65501.63;;;-149.14;100.00
58753;BME280;44525;46.052;13.610;2023-04-06T12:07:36;65501.63;;;-149.14;100.00
58753;BME280;44525;46.052;13.610;2023-04-06T12:10:02;65501.63;;;-149.14;100.00
58753;BME280;44525;46.052;13.610;2023-04-06T12:12:27;65501.63;;;-149.14;100.00
58753;BME280;44525;46.052;13.610;2023-04-06T12:14:53;65501.63;;;-149.14;100.00
58753;BME280;44525;46.052;13.610;2023-04-06T12:17:18;65501.63;;;-149.14;100.00
58753;BME280;44525;46.052;13.610;2023-04-06T12:22:09;65501.63;;;-149.14;100.00
58753;BME280;44525;46.052;13.610;2023-04-06T12:24:34;65501.63;;;17.17;100.00
58753;BME280;44525;46.052;13.610;2023-04-06T12:27:00;65501.63;;;-149.14;100.00
58753;BME280;44525;46.052;13.610;2023-04-06T12:29:26;65501.63;;;-149.14;100.00
58753;BME280;44525;46.052;13.610;2023-04-06T12:31:51;85689.84;;;17.35;100.00
58753;BME280;44525;46.052;13.610;2023-04-06T12:34:18;65501.63;;;17.46;100.00
58753;BME280;44525;46.052;13.610;2023-04-06T12:36:43;65501.63;;;17.86;100.00
58753;BME280;44525;46.052;13.610;2023-04-06T12:39:08;65501.63;;;18.13;100.00
58753;BME280;44525;46.052;13.610;2023-04-06T12:41:33;65501.63;;;-149.14;100.00
58753;BME280;44525;46.052;13.610;2023-04-06T12:43:59;65501.63;;;-149.14;100.00
58753;BME280;44525;46.052;13.610;2023-04-06T12:46:25;65501.63;;;-149.14;100.00
58753;BME280;44525;46.052;13.610;2023-04-06T12:48:51;65501.63;;;-149.14;100.00
58753;BME280;44525;46.052;13.610;2023-04-06T12:51:18;65501.63;;;-149.14;100.00
58753;BME280;44525;46.052;13.610;2023-04-06T12:53:44;65501.63;;;19.53;100.00
58753;BME280;44525;46.052;13.610;2023-04-06T12:56:13;65501.63;;;17.50;100.00